Aviation Digital Data Service (ADDS)

Output produced by METARs form (0906 UTC 23 January 2019)
found at http://aviationweather.gov/metar/data/
 
METAR text: KUAO 230857Z AUTO 19018G25KT 6SM -RA BR BKN009 BKN016 OVC022 09/08 A3023 RMK AO2 P0001 T00940083
Conditions at: KUAO (AURORA , OR, US) observed 0857 UTC 23 January 2019
Temperature: 9.4°C (49°F)
Dewpoint: 8.3°C (47°F) [RH = 93%]
Pressure (altimeter): 30.23 inches Hg (1023.8 mb)
Winds: from the S (190 degrees) at 21 MPH (18 knots; 9.3 m/s)
gusting to 29 MPH (25 knots; 12.9 m/s)
Visibility: 6 miles (10 km)
Ceiling: 900 feet AGL
Clouds: broken clouds at 900 feet AGL
broken clouds at 1600 feet AGL
overcast cloud deck at 2200 feet AGL
Weather: -RA BR  (light rain, mist)

METAR text: KUAO 230853Z AUTO 19017G25KT 6SM -RA BR BKN011 BKN021 OVC026 09/08 A3023 RMK AO2 PK WND 18028/0822 SLP235 P0001 60010 T00940083 56001
Conditions at: KUAO (AURORA , OR, US) observed 0853 UTC 23 January 2019
Temperature: 9.4°C (49°F)
Dewpoint: 8.3°C (47°F) [RH = 93%]
Pressure (altimeter): 30.23 inches Hg (1023.8 mb)
[Sea-level pressure: 1023.5 mb]
Winds: from the S (190 degrees) at 20 MPH (17 knots; 8.7 m/s)
gusting to 29 MPH (25 knots; 12.9 m/s)
Visibility: 6 miles (10 km)
Ceiling: 1100 feet AGL
Clouds: broken clouds at 1100 feet AGL
broken clouds at 2100 feet AGL
overcast cloud deck at 2600 feet AGL
Weather: -RA BR  (light rain, mist)

METAR text: KUAO 230849Z AUTO 19015G27KT 7SM -RA FEW009 BKN013 OVC026 09/08 A3023 RMK AO2 PK WND 18028/0822 P0001
Conditions at: KUAO (AURORA , OR, US) observed 0849 UTC 23 January 2019
Temperature: 9.0°C (48°F)
Dewpoint: 8.0°C (46°F) [RH = 93%]
Pressure (altimeter): 30.23 inches Hg (1023.8 mb)
Winds: from the S (190 degrees) at 17 MPH (15 knots; 7.7 m/s)
gusting to 31 MPH (27 knots; 13.9 m/s)
Visibility: 7 miles (11 km)
Ceiling: 1300 feet AGL
Clouds: few clouds at 900 feet AGL
broken clouds at 1300 feet AGL
overcast cloud deck at 2600 feet AGL
Weather: -RA  (light rain)

METAR text: KUAO 230753Z AUTO 19014G23KT 9SM -RA SCT014 OVC024 09/08 A3023 RMK AO2 PK WND 20026/0709 PRESFR SLP237 P0004 T00940078 400940033
Conditions at: KUAO (AURORA , OR, US) observed 0753 UTC 23 January 2019
Temperature: 9.4°C (49°F)
Dewpoint: 7.8°C (46°F) [RH = 90%]
Pressure (altimeter): 30.23 inches Hg (1023.8 mb)
[Sea-level pressure: 1023.7 mb]
Winds: from the S (190 degrees) at 16 MPH (14 knots; 7.2 m/s)
gusting to 26 MPH (23 knots; 11.8 m/s)
Visibility: 9 miles (14 km)
Ceiling: 2400 feet AGL
Clouds: scattered clouds at 1400 feet AGL
overcast cloud deck at 2400 feet AGL
Weather: -RA  (light rain)

METAR text: KUAO 230729Z AUTO 21012G23KT 10SM -RA FEW015 BKN027 OVC032 09/08 A3025 RMK AO2 PK WND 20026/0709 PRESRR P0003 T00940078
Conditions at: KUAO (AURORA , OR, US) observed 0729 UTC 23 January 2019
Temperature: 9.4°C (49°F)
Dewpoint: 7.8°C (46°F) [RH = 90%]
Pressure (altimeter): 30.25 inches Hg (1024.5 mb)
Winds: from the SSW (210 degrees) at 14 MPH (12 knots; 6.2 m/s)
gusting to 26 MPH (23 knots; 11.8 m/s)
Visibility: 10 or more miles (16+ km)
Ceiling: 2700 feet AGL
Clouds: few clouds at 1500 feet AGL
broken clouds at 2700 feet AGL
overcast cloud deck at 3200 feet AGL
Weather: -RA  (light rain)

Forecast for: KUAO (AURORA , OR, US)
Text: KUAO 230542Z 2306/2406 19018G28KT 4SM -RA BR BKN018 OVC035
Forecast period: 0600 to 0900 UTC 23 January 2019
Forecast type: FROM: standard forecast or significant change
Winds: from the S (190 degrees) at 21 MPH (18 knots; 9.3 m/s)
gusting to 32 MPH (28 knots; 14.4 m/s)
Visibility: 4 miles (6 km)
Ceiling: 1800 feet AGL
Clouds: broken clouds at 1800 feet AGL
overcast cloud deck at 3500 feet AGL
Weather: -RA BR  (light rain, mist)
Text: FM230900 19015G25KT 6SM -RA OVC015
Forecast period: 0900 to 1200 UTC 23 January 2019
Forecast type: FROM: standard forecast or significant change
Winds: from the S (190 degrees) at 17 MPH (15 knots; 7.7 m/s)
gusting to 29 MPH (25 knots; 12.9 m/s)
Visibility: 6 miles (10 km)
Ceiling: 1500 feet AGL
Clouds: overcast cloud deck at 1500 feet AGL
Weather: -RA  (light rain)
Text: FM231200 20015KT P6SM -SHRA OVC015
Forecast period: 1200 to 1600 UTC 23 January 2019
Forecast type: FROM: standard forecast or significant change
Winds: from the SSW (200 degrees) at 17 MPH (15 knots; 7.7 m/s)
Visibility: 6 or more miles 10+ km)
Ceiling: 1500 feet AGL
Clouds: overcast cloud deck at 1500 feet AGL
Weather: -SHRA  (light rain showers)
Text: FM231600 20012G19KT P6SM OVC015
Forecast period: 1600 to 2300 UTC 23 January 2019
Forecast type: FROM: standard forecast or significant change
Winds: from the SSW (200 degrees) at 14 MPH (12 knots; 6.2 m/s)
gusting to 22 MPH (19 knots; 9.8 m/s)
Visibility: 6 or more miles 10+ km)
Ceiling: 1500 feet AGL
Clouds: overcast cloud deck at 1500 feet AGL
Weather: no significant weather forecast for this period
Text: FM232300 21006KT P6SM OVC025
Forecast period: 2300 UTC 23 January 2019 to 0600 UTC 24 January 2019
Forecast type: FROM: standard forecast or significant change
Winds: from the SSW (210 degrees) at 7 MPH (6 knots; 3.1 m/s)
Visibility: 6 or more miles 10+ km)
Ceiling: 2500 feet AGL
Clouds: overcast cloud deck at 2500 feet AGL
Weather: no significant weather forecast for this period